sensor_id;sensor_type;location;lat;lon;timestamp;P1;durP1;ratioP1;P2;durP2;ratioP2
54917;SDS011;40818;50.562;7.454;2023-09-19T00:01:02;1.40;;;0.20;;
54917;SDS011;40818;50.562;7.454;2023-09-19T00:11:06;1.20;;;0.20;;
54917;SDS011;40818;50.562;7.454;2023-09-19T00:21:13;1.40;;;0.20;;
54917;SDS011;40818;50.562;7.454;2023-09-19T00:31:17;2.33;;;0.25;;
54917;SDS011;40818;50.562;7.454;2023-09-19T00:41:28;1.52;;;0.20;;
54917;SDS011;40818;50.562;7.454;2023-09-19T00:51:32;1.33;;;0.30;;
54917;SDS011;40818;50.562;7.454;2023-09-19T01:01:42;0.98;;;0.20;;
54917;SDS011;40818;50.562;7.454;2023-09-19T01:11:50;0.90;;;0.20;;
54917;SDS011;40818;50.562;7.454;2023-09-19T01:22:00;3.40;;;0.20;;
54917;SDS011;40818;50.562;7.454;2023-09-19T01:32:16;3.83;;;0.20;;
54917;SDS011;40818;50.562;7.454;2023-09-19T01:42:24;0.90;;;0.20;;
54917;SDS011;40818;50.562;7.454;2023-09-19T01:52:38;2.03;;;0.20;;
54917;SDS011;40818;50.562;7.454;2023-09-19T02:02:51;1.52;;;0.20;;
54917;SDS011;40818;50.562;7.454;2023-09-19T02:13:00;2.33;;;0.20;;
54917;SDS011;40818;50.562;7.454;2023-09-19T02:23:04;6.95;;;0.32;;
54917;SDS011;40818;50.562;7.454;2023-09-19T02:33:11;4.20;;;0.30;;
54917;SDS011;40818;50.562;7.454;2023-09-19T02:43:15;1.63;;;0.25;;
54917;SDS011;40818;50.562;7.454;2023-09-19T02:53:22;3.83;;;0.50;;
54917;SDS011;40818;50.562;7.454;2023-09-19T03:03:26;2.47;;;0.25;;
54917;SDS011;40818;50.562;7.454;2023-09-19T03:13:33;2.80;;;0.30;;
54917;SDS011;40818;50.562;7.454;2023-09-19T03:23:37;7.10;;;0.25;;
54917;SDS011;40818;50.562;7.454;2023-09-19T03:33:44;2.40;;;0.20;;
54917;SDS011;40818;50.562;7.454;2023-09-19T03:43:47;1.58;;;0.17;;
54917;SDS011;40818;50.562;7.454;2023-09-19T03:53:53;4.72;;;0.20;;
54917;SDS011;40818;50.562;7.454;2023-09-19T04:03:57;3.67;;;0.20;;
54917;SDS011;40818;50.562;7.454;2023-09-19T04:24:15;3.00;;;0.30;;
54917;SDS011;40818;50.562;7.454;2023-09-19T04:34:22;1.63;;;0.17;;
54917;SDS011;40818;50.562;7.454;2023-09-19T04:44:25;2.70;;;0.20;;
54917;SDS011;40818;50.562;7.454;2023-09-19T04:54:31;3.25;;;0.40;;
54917;SDS011;40818;50.562;7.454;2023-09-19T05:04:34;5.78;;;0.40;;
54917;SDS011;40818;50.562;7.454;2023-09-19T05:14:41;6.88;;;0.40;;
54917;SDS011;40818;50.562;7.454;2023-09-19T05:24:44;3.65;;;0.40;;
54917;SDS011;40818;50.562;7.454;2023-09-19T05:34:51;5.60;;;0.40;;
54917;SDS011;40818;50.562;7.454;2023-09-19T05:44:56;3.47;;;0.30;;
54917;SDS011;40818;50.562;7.454;2023-09-19T05:55:03;8.02;;;0.30;;
54917;SDS011;40818;50.562;7.454;2023-09-19T06:05:08;3.35;;;0.35;;
54917;SDS011;40818;50.562;7.454;2023-09-19T06:15:15;10.63;;;0.30;;
54917;SDS011;40818;50.562;7.454;2023-09-19T06:25:19;4.78;;;0.40;;
54917;SDS011;40818;50.562;7.454;2023-09-19T06:35:26;3.13;;;0.30;;
54917;SDS011;40818;50.562;7.454;2023-09-19T06:45:33;4.65;;;0.35;;
54917;SDS011;40818;50.562;7.454;2023-09-19T06:55:39;3.58;;;0.32;;
54917;SDS011;40818;50.562;7.454;2023-09-19T07:05:44;5.18;;;0.40;;
54917;SDS011;40818;50.562;7.454;2023-09-19T07:15:52;7.95;;;0.30;;
54917;SDS011;40818;50.562;7.454;2023-09-19T07:25:56;4.80;;;0.38;;
54917;SDS011;40818;50.562;7.454;2023-09-19T07:36:03;2.45;;;0.32;;
54917;SDS011;40818;50.562;7.454;2023-09-19T07:46:07;6.22;;;0.35;;
54917;SDS011;40818;50.562;7.454;2023-09-19T07:56:14;4.82;;;0.38;;
54917;SDS011;40818;50.562;7.454;2023-09-19T08:06:20;10.70;;;0.43;;
54917;SDS011;40818;50.562;7.454;2023-09-19T08:16:26;8.05;;;0.60;;
54917;SDS011;40818;50.562;7.454;2023-09-19T08:26:29;5.53;;;0.45;;
54917;SDS011;40818;50.562;7.454;2023-09-19T08:36:36;6.13;;;0.40;;
54917;SDS011;40818;50.562;7.454;2023-09-19T08:46:41;7.88;;;0.50;;
54917;SDS011;40818;50.562;7.454;2023-09-19T08:56:49;6.80;;;0.50;;
54917;SDS011;40818;50.562;7.454;2023-09-19T09:06:53;6.45;;;0.40;;
54917;SDS011;40818;50.562;7.454;2023-09-19T09:17:01;5.43;;;0.40;;
54917;SDS011;40818;50.562;7.454;2023-09-19T09:27:05;3.60;;;0.40;;
54917;SDS011;40818;50.562;7.454;2023-09-19T09:37:15;6.18;;;0.40;;
54917;SDS011;40818;50.562;7.454;2023-09-19T09:47:24;7.57;;;0.30;;
54917;SDS011;40818;50.562;7.454;2023-09-19T09:57:53;4.35;;;0.50;;
54917;SDS011;40818;50.562;7.454;2023-09-19T10:08:24;4.22;;;0.40;;
54917;SDS011;40818;50.562;7.454;2023-09-19T10:18:33;2.60;;;0.30;;
54917;SDS011;40818;50.562;7.454;2023-09-19T10:28:39;4.03;;;0.40;;
54917;SDS011;40818;50.562;7.454;2023-09-19T10:38:47;5.28;;;0.50;;
54917;SDS011;40818;50.562;7.454;2023-09-19T10:48:54;2.30;;;0.40;;
54917;SDS011;40818;50.562;7.454;2023-09-19T10:59:08;4.10;;;0.38;;
54917;SDS011;40818;50.562;7.454;2023-09-19T11:09:13;4.80;;;0.40;;
54917;SDS011;40818;50.562;7.454;2023-09-19T11:19:38;4.18;;;0.47;;
54917;SDS011;40818;50.562;7.454;2023-09-19T11:30:27;6.90;;;0.40;;
54917;SDS011;40818;50.562;7.454;2023-09-19T11:40:35;2.38;;;0.40;;
54917;SDS011;40818;50.562;7.454;2023-09-19T11:50:39;3.78;;;0.30;;
54917;SDS011;40818;50.562;7.454;2023-09-19T12:00:46;4.80;;;0.40;;
54917;SDS011;40818;50.562;7.454;2023-09-19T12:10:59;2.85;;;0.30;;
54917;SDS011;40818;50.562;7.454;2023-09-19T12:21:05;2.72;;;0.40;;
54917;SDS011;40818;50.562;7.454;2023-09-19T12:31:12;7.82;;;0.43;;
54917;SDS011;40818;50.562;7.454;2023-09-19T12:41:21;3.63;;;0.40;;
54917;SDS011;40818;50.562;7.454;2023-09-19T12:51:25;2.35;;;0.35;;
54917;SDS011;40818;50.562;7.454;2023-09-19T13:01:40;2.38;;;0.28;;
54917;SDS011;40818;50.562;7.454;2023-09-19T13:11:48;5.97;;;0.30;;
54917;SDS011;40818;50.562;7.454;2023-09-19T13:21:56;5.00;;;0.20;;
54917;SDS011;40818;50.562;7.454;2023-09-19T13:31:59;7.15;;;0.52;;
54917;SDS011;40818;50.562;7.454;2023-09-19T13:42:07;2.47;;;0.30;;
54917;SDS011;40818;50.562;7.454;2023-09-19T13:52:12;2.45;;;0.20;;
54917;SDS011;40818;50.562;7.454;2023-09-19T14:02:18;1.38;;;0.20;;
54917;SDS011;40818;50.562;7.454;2023-09-19T14:12:23;1.80;;;0.20;;
54917;SDS011;40818;50.562;7.454;2023-09-19T14:22:29;1.10;;;0.17;;
54917;SDS011;40818;50.562;7.454;2023-09-19T14:32:34;1.77;;;0.30;;
54917;SDS011;40818;50.562;7.454;2023-09-19T14:42:40;4.13;;;0.20;;
54917;SDS011;40818;50.562;7.454;2023-09-19T14:52:44;2.03;;;0.20;;
54917;SDS011;40818;50.562;7.454;2023-09-19T15:02:50;3.05;;;0.20;;
54917;SDS011;40818;50.562;7.454;2023-09-19T15:12:55;2.30;;;0.30;;
54917;SDS011;40818;50.562;7.454;2023-09-19T15:23:01;2.10;;;0.20;;
54917;SDS011;40818;50.562;7.454;2023-09-19T15:33:04;3.30;;;0.20;;
54917;SDS011;40818;50.562;7.454;2023-09-19T15:43:11;1.48;;;0.20;;
54917;SDS011;40818;50.562;7.454;2023-09-19T15:53:14;1.85;;;0.20;;
54917;SDS011;40818;50.562;7.454;2023-09-19T16:03:21;1.95;;;0.20;;
54917;SDS011;40818;50.562;7.454;2023-09-19T16:13:27;1.60;;;0.20;;
54917;SDS011;40818;50.562;7.454;2023-09-19T16:23:33;4.53;;;0.20;;
54917;SDS011;40818;50.562;7.454;2023-09-19T16:33:37;1.15;;;0.10;;
54917;SDS011;40818;50.562;7.454;2023-09-19T16:43:45;2.97;;;0.20;;
54917;SDS011;40818;50.562;7.454;2023-09-19T16:53:48;2.03;;;0.20;;
54917;SDS011;40818;50.562;7.454;2023-09-19T17:03:57;4.80;;;0.20;;
54917;SDS011;40818;50.562;7.454;2023-09-19T17:14:01;1.15;;;0.20;;
54917;SDS011;40818;50.562;7.454;2023-09-19T17:24:07;3.00;;;0.20;;
54917;SDS011;40818;50.562;7.454;2023-09-19T17:34:11;2.45;;;0.20;;
54917;SDS011;40818;50.562;7.454;2023-09-19T17:44:18;4.13;;;0.20;;
54917;SDS011;40818;50.562;7.454;2023-09-19T17:54:21;3.97;;;0.20;;
54917;SDS011;40818;50.562;7.454;2023-09-19T18:04:28;2.55;;;0.20;;
54917;SDS011;40818;50.562;7.454;2023-09-19T18:14:31;7.38;;;0.25;;
54917;SDS011;40818;50.562;7.454;2023-09-19T18:24:38;1.70;;;0.20;;
54917;SDS011;40818;50.562;7.454;2023-09-19T18:34:42;3.40;;;0.30;;
54917;SDS011;40818;50.562;7.454;2023-09-19T18:44:48;1.20;;;0.20;;
54917;SDS011;40818;50.562;7.454;2023-09-19T18:54:51;1.48;;;0.20;;
54917;SDS011;40818;50.562;7.454;2023-09-19T19:04:58;1.23;;;0.22;;
54917;SDS011;40818;50.562;7.454;2023-09-19T19:15:02;0.82;;;0.20;;
54917;SDS011;40818;50.562;7.454;2023-09-19T19:25:09;3.50;;;0.20;;
54917;SDS011;40818;50.562;7.454;2023-09-19T19:35:12;2.88;;;0.20;;
54917;SDS011;40818;50.562;7.454;2023-09-19T19:45:20;0.80;;;0.17;;
54917;SDS011;40818;50.562;7.454;2023-09-19T19:55:23;3.95;;;0.30;;
54917;SDS011;40818;50.562;7.454;2023-09-19T20:05:30;5.45;;;0.20;;
54917;SDS011;40818;50.562;7.454;2023-09-19T20:15:34;5.05;;;0.20;;
54917;SDS011;40818;50.562;7.454;2023-09-19T20:25:40;1.15;;;0.20;;
54917;SDS011;40818;50.562;7.454;2023-09-19T20:35:45;2.22;;;0.20;;
54917;SDS011;40818;50.562;7.454;2023-09-19T20:45:51;1.35;;;0.20;;
54917;SDS011;40818;50.562;7.454;2023-09-19T20:55:59;2.75;;;0.20;;
54917;SDS011;40818;50.562;7.454;2023-09-19T21:06:05;1.42;;;0.20;;
54917;SDS011;40818;50.562;7.454;2023-09-19T21:16:11;1.58;;;0.20;;
54917;SDS011;40818;50.562;7.454;2023-09-19T21:26:17;1.70;;;0.20;;
54917;SDS011;40818;50.562;7.454;2023-09-19T21:36:21;1.80;;;0.20;;
54917;SDS011;40818;50.562;7.454;2023-09-19T21:46:32;3.28;;;0.30;;
54917;SDS011;40818;50.562;7.454;2023-09-19T21:56:36;2.17;;;0.20;;
54917;SDS011;40818;50.562;7.454;2023-09-19T22:06:42;1.20;;;0.20;;
54917;SDS011;40818;50.562;7.454;2023-09-19T22:16:47;1.92;;;0.30;;
54917;SDS011;40818;50.562;7.454;2023-09-19T22:26:53;2.67;;;0.30;;
54917;SDS011;40818;50.562;7.454;2023-09-19T22:36:58;3.40;;;0.30;;
54917;SDS011;40818;50.562;7.454;2023-09-19T22:47:05;2.58;;;0.30;;
54917;SDS011;40818;50.562;7.454;2023-09-19T22:57:09;3.70;;;0.30;;
54917;SDS011;40818;50.562;7.454;2023-09-19T23:07:15;3.30;;;0.20;;
54917;SDS011;40818;50.562;7.454;2023-09-19T23:17:20;2.10;;;0.30;;
54917;SDS011;40818;50.562;7.454;2023-09-19T23:27:27;2.60;;;0.30;;
54917;SDS011;40818;50.562;7.454;2023-09-19T23:37:34;4.10;;;0.40;;
54917;SDS011;40818;50.562;7.454;2023-09-19T23:47:40;2.42;;;0.30;;
54917;SDS011;40818;50.562;7.454;2023-09-19T23:57:43;3.47;;;0.40;;
